Time;durP1;ratioP1;P1;durP2;ratioP2;P2;SDS_P1;SDS_P2;PMS_P1;PMS_P2;Temp;Humidity;BMP_temperature;BMP_pressure;BME280_temperature;BME280_humidity;BME280_pressure;Samples;Min_cycle;Max_cycle;Signal;HPM_P1;HPM_P2
2023/06/20 00:02:10;;;;;;;12.90;12.30;;;;;;;;;;4990270;28;20032;-64
2023/06/20 00:04:36;;;;;;;12.73;12.13;;;;;;;;;;4982975;28;20486;-64
2023/06/20 00:07:01;;;;;;;13.20;12.50;;;;;;;;;;4988097;28;20057;-64
2023/06/20 00:09:26;;;;;;;13.02;12.43;;;;;;;;;;4989673;28;20018;-64
2023/06/20 00:11:52;;;;;;;14.52;13.73;;;;;;;;;;4993213;28;20022;-64
2023/06/20 00:14:17;;;;;;;13.30;12.65;;;;;;;;;;4994103;28;20058;-64
2023/06/20 00:16:42;;;;;;;13.10;12.50;;;;;;;;;;4990350;28;20368;-64
2023/06/20 00:19:08;;;;;;;12.98;12.38;;;;;;;;;;4992617;28;20565;-63
2023/06/20 00:21:34;;;;;;;13.05;12.45;;;;;;;;;;4987409;28;20033;-64
2023/06/20 00:23:59;;;;;;;12.90;12.30;;;;;;;;;;4989017;28;20029;-65
2023/06/20 00:26:24;;;;;;;12.93;12.32;;;;;;;;;;4984598;28;20394;-65
2023/06/20 00:28:50;;;;;;;12.63;12.02;;;;;;;;;;4989249;28;20439;-64
2023/06/20 00:31:15;;;;;;;12.02;11.50;;;;;;;;;;4986689;28;20027;-66
2023/06/20 00:33:41;;;;;;;12.32;11.73;;;;;;;;;;4992902;28;20191;-66
2023/06/20 00:36:06;;;;;;;12.65;12.05;;;;;;;;;;4989217;28;20466;-65
2023/06/20 00:38:32;;;;;;;12.90;12.30;;;;;;;;;;4994208;28;20022;-63
2023/06/20 00:40:57;;;;;;;12.80;12.20;;;;;;;;;;4996499;28;20022;-65
2023/06/20 00:43:23;;;;;;;13.45;12.75;;;;;;;;;;4995179;28;20030;-65
2023/06/20 00:45:49;;;;;;;12.50;11.90;;;;;;;;;;4993215;28;20478;-64
2023/06/20 00:48:15;;;;;;;12.32;11.73;;;;;;;;;;4991092;28;20148;-65
2023/06/20 00:50:41;;;;;;;12.60;12.00;;;;;;;;;;4992806;28;20030;-65
2023/06/20 00:53:06;;;;;;;12.32;11.73;;;;;;;;;;4988569;28;20022;-64
2023/06/20 00:55:36;;;;;;;12.80;12.20;;;;;;;;;;4987964;28;20026;-64
2023/06/20 00:58:02;;;;;;;12.85;12.25;;;;;;;;;;4990963;28;20026;-64
2023/06/20 01:00:28;;;;;;;13.23;12.52;;;;;;;;;;4984712;28;20030;-64
2023/06/20 01:03:01;;;;;;;12.43;11.82;;;;;;;;;;4984003;28;20023;-65
2023/06/20 01:05:27;;;;;;;12.70;12.10;;;;;;;;;;4991277;28;20026;-64
2023/06/20 01:07:58;;;;;;;12.75;12.15;;;;;;;;;;4992152;28;20081;-64
2023/06/20 01:10:42;;;;;;;12.15;11.55;;;;;;;;;;4989779;28;20121;-65
2023/06/20 01:13:16;;;;;;;12.38;11.77;;;;;;;;;;4989403;28;20022;-65
2023/06/20 01:15:44;;;;;;;13.05;12.45;;;;;;;;;;4988940;28;20097;-65
2023/06/20 01:18:26;;;;;;;12.38;11.77;;;;;;;;;;4991629;28;20030;-64
2023/06/20 01:20:54;;;;;;;13.13;12.43;;;;;;;;;;4986119;28;20122;-65
2023/06/20 01:23:32;;;;;;;13.00;12.40;;;;;;;;;;4988539;28;20026;-64
2023/06/20 01:25:59;;;;;;;12.85;12.25;;;;;;;;;;4981074;28;20019;-64
2023/06/20 01:28:31;;;;;;;12.30;11.70;;;;;;;;;;4990214;28;20045;-64
2023/06/20 01:31:03;;;;;;;13.00;12.35;;;;;;;;;;4989953;28;20088;-64
2023/06/20 01:33:30;;;;;;;12.63;12.02;;;;;;;;;;4989876;28;21886;-64
2023/06/20 01:35:56;;;;;;;13.63;12.93;;;;;;;;;;4992103;28;20125;-65
2023/06/20 01:38:24;;;;;;;12.20;11.60;;;;;;;;;;4991508;28;20105;-64
2023/06/20 01:40:50;;;;;;;12.45;11.85;;;;;;;;;;4987036;28;20056;-64
2023/06/20 01:43:18;;;;;;;12.65;12.05;;;;;;;;;;4985831;28;20364;-64
2023/06/20 01:45:44;;;;;;;12.80;12.20;;;;;;;;;;4986557;28;20512;-64
2023/06/20 01:48:11;;;;;;;11.95;11.45;;;;;;;;;;4990696;28;20041;-64
2023/06/20 01:50:37;;;;;;;13.00;12.35;;;;;;;;;;4986601;28;20037;-65
2023/06/20 01:53:03;;;;;;;12.50;11.90;;;;;;;;;;4991484;28;20018;-64
2023/06/20 01:55:29;;;;;;;12.80;12.20;;;;;;;;;;4985062;28;20045;-64
2023/06/20 01:57:57;;;;;;;12.73;12.13;;;;;;;;;;4993061;28;20403;-64
2023/06/20 02:00:23;;;;;;;12.70;12.10;;;;;;;;;;4981286;28;20030;-64
2023/06/20 02:02:49;;;;;;;12.75;12.15;;;;;;;;;;4991564;28;20490;-64
2023/06/20 02:05:15;;;;;;;12.85;12.25;;;;;;;;;;4987551;28;20035;-65
2023/06/20 02:07:41;;;;;;;12.57;11.98;;;;;;;;;;4986408;28;20045;-65
2023/06/20 02:10:06;;;;;;;12.80;12.20;;;;;;;;;;4982815;28;20071;-64
2023/06/20 02:12:32;;;;;;;12.48;11.88;;;;;;;;;;4991682;28;20355;-65
2023/06/20 02:14:58;;;;;;;13.95;13.20;;;;;;;;;;4983461;28;20038;-64
2023/06/20 02:17:24;;;;;;;13.18;12.50;;;;;;;;;;4987434;28;20033;-64
2023/06/20 02:19:50;;;;;;;12.85;12.25;;;;;;;;;;4986614;28;20030;-64
2023/06/20 02:22:17;;;;;;;12.60;12.00;;;;;;;;;;4987709;28;20486;-64
2023/06/20 02:24:43;;;;;;;12.40;11.80;;;;;;;;;;4986563;28;20077;-65
2023/06/20 02:27:09;;;;;;;13.50;12.80;;;;;;;;;;4981930;28;20027;-65
2023/06/20 02:29:37;;;;;;;13.10;12.40;;;;;;;;;;4990726;28;20409;-64
2023/06/20 02:32:04;;;;;;;12.40;11.80;;;;;;;;;;4992652;28;20033;-64
2023/06/20 02:34:31;;;;;;;12.52;11.93;;;;;;;;;;4987259;28;20023;-63
2023/06/20 02:36:58;;;;;;;13.27;12.57;;;;;;;;;;4987104;28;20026;-64
2023/06/20 02:39:24;;;;;;;12.73;12.13;;;;;;;;;;4992698;28;20354;-63
2023/06/20 02:41:49;;;;;;;12.75;12.15;;;;;;;;;;4989205;28;20113;-64
2023/06/20 02:44:14;;;;;;;12.52;11.93;;;;;;;;;;4987376;28;20097;-65
2023/06/20 02:46:58;;;;;;;12.35;11.75;;;;;;;;;;4994966;28;20022;-65
2023/06/20 02:49:56;;;;;;;12.40;11.80;;;;;;;;;;4994466;28;20022;-64
2023/06/20 02:52:40;;;;;;;13.25;12.55;;;;;;;;;;4959809;28;20034;-64
2023/06/20 02:55:26;;;;;;;12.70;12.10;;;;;;;;;;4994422;28;20101;-65
2023/06/20 02:57:56;;;;;;;12.57;11.98;;;;;;;;;;4990823;28;20386;-64
2023/06/20 03:00:22;;;;;;;12.40;11.80;;;;;;;;;;4991639;28;20077;-65
2023/06/20 03:02:52;;;;;;;13.40;12.70;;;;;;;;;;4987893;28;20031;-64
2023/06/20 03:05:18;;;;;;;13.65;12.95;;;;;;;;;;4987304;28;20508;-64
2023/06/20 03:07:44;;;;;;;12.35;11.75;;;;;;;;;;4985290;28;20061;-64
2023/06/20 03:10:10;;;;;;;12.15;11.55;;;;;;;;;;4991921;28;20057;-65
2023/06/20 03:12:35;;;;;;;12.77;12.18;;;;;;;;;;4991481;28;20034;-65
2023/06/20 03:15:01;;;;;;;14.35;13.55;;;;;;;;;;4989156;28;20038;-64
2023/06/20 03:17:26;;;;;;;12.60;12.00;;;;;;;;;;4993663;28;20034;-65
2023/06/20 03:19:51;;;;;;;12.93;12.27;;;;;;;;;;4992674;28;20027;-65
2023/06/20 03:22:16;;;;;;;12.80;12.20;;;;;;;;;;4985027;28;20033;-65
2023/06/20 03:24:42;;;;;;;12.40;11.80;;;;;;;;;;4992427;28;20097;-63
2023/06/20 03:27:07;;;;;;;12.25;11.65;;;;;;;;;;4992306;28;20532;-65
2023/06/20 03:29:33;;;;;;;12.68;12.07;;;;;;;;;;4988066;28;20090;-64
2023/06/20 03:31:58;;;;;;;12.50;11.90;;;;;;;;;;4997138;28;20073;-63
2023/06/20 03:34:23;;;;;;;13.50;12.80;;;;;;;;;;4992526;28;20418;-65
2023/06/20 03:36:49;;;;;;;12.32;11.73;;;;;;;;;;4993782;28;20022;-64
2023/06/20 03:39:14;;;;;;;13.35;12.65;;;;;;;;;;4992313;28;20077;-66
2023/06/20 03:41:39;;;;;;;12.30;11.70;;;;;;;;;;4992141;28;20037;-65
2023/06/20 03:44:05;;;;;;;12.30;11.70;;;;;;;;;;4992481;28;20101;-63
2023/06/20 03:46:30;;;;;;;12.70;12.10;;;;;;;;;;4989594;28;20050;-65
2023/06/20 03:48:55;;;;;;;13.35;12.65;;;;;;;;;;4991373;28;20027;-64
2023/06/20 03:51:21;;;;;;;12.38;11.77;;;;;;;;;;4988509;28;20038;-65
2023/06/20 03:53:46;;;;;;;13.45;12.75;;;;;;;;;;4987728;28;20471;-65
2023/06/20 03:56:11;;;;;;;12.77;12.18;;;;;;;;;;4985627;28;20486;-64
2023/06/20 03:58:38;;;;;;;12.52;11.93;;;;;;;;;;4993578;28;20053;-65
2023/06/20 04:01:06;;;;;;;12.30;11.70;;;;;;;;;;4990618;28;20018;-64
2023/06/20 04:03:31;;;;;;;13.65;12.95;;;;;;;;;;4990458;28;20026;-64
2023/06/20 04:06:01;;;;;;;13.32;12.63;;;;;;;;;;4986501;28;20030;-64
2023/06/20 04:08:27;;;;;;;12.98;12.38;;;;;;;;;;4987297;28;20034;-65
2023/06/20 04:10:52;;;;;;;13.10;12.50;;;;;;;;;;4989058;28;20093;-65
2023/06/20 04:13:17;;;;;;;11.90;11.38;;;;;;;;;;4989887;28;20018;-64
2023/06/20 04:15:42;;;;;;;12.95;12.35;;;;;;;;;;4990084;28;20512;-64
2023/06/20 04:18:08;;;;;;;13.18;12.57;;;;;;;;;;4995452;28;20033;-64
2023/06/20 04:20:33;;;;;;;13.50;12.80;;;;;;;;;;4991593;28;20378;-64
2023/06/20 04:22:58;;;;;;;13.98;13.27;;;;;;;;;;4983806;28;20064;-64
2023/06/20 04:25:24;;;;;;;13.20;12.60;;;;;;;;;;4985193;28;20018;-63
2023/06/20 04:27:53;;;;;;;13.43;12.77;;;;;;;;;;4994160;28;20038;-63
2023/06/20 04:30:19;;;;;;;12.48;11.88;;;;;;;;;;4990988;28;20038;-64
2023/06/20 04:32:44;;;;;;;13.55;12.85;;;;;;;;;;4987587;28;20084;-63
2023/06/20 04:35:10;;;;;;;12.98;12.38;;;;;;;;;;4988683;28;20074;-63
2023/06/20 04:37:36;;;;;;;13.85;13.15;;;;;;;;;;4984600;28;20089;-63
2023/06/20 04:40:01;;;;;;;12.90;12.30;;;;;;;;;;4982514;28;20023;-63
2023/06/20 04:42:26;;;;;;;13.88;13.18;;;;;;;;;;4984419;28;20505;-63
2023/06/20 04:44:52;;;;;;;13.23;12.63;;;;;;;;;;4987378;28;20492;-63
2023/06/20 04:47:17;;;;;;;13.45;12.77;;;;;;;;;;4989798;28;20018;-63
2023/06/20 04:49:43;;;;;;;13.43;12.77;;;;;;;;;;4985996;28;20052;-63
2023/06/20 04:52:08;;;;;;;14.25;13.55;;;;;;;;;;4982974;28;20017;-63
2023/06/20 04:54:34;;;;;;;13.50;12.90;;;;;;;;;;4976382;28;20046;-63
2023/06/20 04:56:59;;;;;;;13.85;13.15;;;;;;;;;;4986625;28;20488;-63
2023/06/20 04:59:24;;;;;;;13.32;12.73;;;;;;;;;;4989045;28;20030;-64
2023/06/20 05:01:51;;;;;;;12.60;12.00;;;;;;;;;;4986479;28;20015;-63
2023/06/20 05:04:19;;;;;;;13.13;12.52;;;;;;;;;;4981315;28;20033;-63
2023/06/20 05:06:46;;;;;;;13.00;12.40;;;;;;;;;;4981177;28;20423;-63
2023/06/20 05:09:11;;;;;;;13.40;12.80;;;;;;;;;;4988748;28;20042;-64
2023/06/20 05:11:36;;;;;;;13.25;12.65;;;;;;;;;;4985229;28;20026;-63
2023/06/20 05:14:02;;;;;;;13.23;12.63;;;;;;;;;;4985594;28;20025;-63
2023/06/20 05:16:28;;;;;;;12.98;12.38;;;;;;;;;;4988135;28;20057;-63
2023/06/20 05:18:53;;;;;;;13.47;12.87;;;;;;;;;;4984751;28;20057;-64
2023/06/20 05:21:18;;;;;;;13.45;12.85;;;;;;;;;;4988614;28;20027;-63
2023/06/20 05:23:44;;;;;;;13.15;12.55;;;;;;;;;;4989310;28;20014;-63
2023/06/20 05:26:10;;;;;;;12.80;12.20;;;;;;;;;;4980407;28;20027;-63
2023/06/20 05:28:35;;;;;;;12.55;11.95;;;;;;;;;;4990252;28;20038;-62
2023/06/20 05:31:00;;;;;;;12.80;12.20;;;;;;;;;;4987786;28;20764;-62
2023/06/20 05:33:26;;;;;;;12.70;12.10;;;;;;;;;;4981189;28;20050;-63
2023/06/20 05:35:51;;;;;;;12.75;12.15;;;;;;;;;;4981007;28;20296;-64
2023/06/20 05:38:18;;;;;;;12.68;12.07;;;;;;;;;;4988443;28;20134;-64
2023/06/20 05:40:43;;;;;;;12.40;11.85;;;;;;;;;;4989353;28;20101;-64
2023/06/20 05:43:08;;;;;;;12.80;12.20;;;;;;;;;;4989424;28;20482;-64
2023/06/20 05:45:34;;;;;;;13.00;12.40;;;;;;;;;;4991497;28;20470;-64
2023/06/20 05:47:59;;;;;;;12.73;12.13;;;;;;;;;;4993318;28;20493;-65
2023/06/20 05:50:30;;;;;;;12.55;11.95;;;;;;;;;;4989396;28;20033;-64
2023/06/20 05:52:55;;;;;;;12.93;12.32;;;;;;;;;;4984062;28;20097;-65
2023/06/20 05:55:21;;;;;;;12.27;11.77;;;;;;;;;;4984684;28;20113;-65
2023/06/20 05:57:46;;;;;;;12.30;11.80;;;;;;;;;;4987687;28;20454;-64
2023/06/20 06:00:12;;;;;;;13.48;12.88;;;;;;;;;;4987429;28;20018;-64
2023/06/20 06:02:41;;;;;;;12.80;12.20;;;;;;;;;;4996581;28;20061;-64
2023/06/20 06:05:06;;;;;;;12.75;12.15;;;;;;;;;;4986336;28;20038;-64
2023/06/20 06:07:31;;;;;;;13.20;12.60;;;;;;;;;;4985463;28;20105;-64
2023/06/20 06:09:57;;;;;;;12.73;12.13;;;;;;;;;;4984117;28;20045;-64
2023/06/20 06:12:22;;;;;;;12.45;11.85;;;;;;;;;;4989977;28;20065;-63
2023/06/20 06:14:47;;;;;;;12.82;12.23;;;;;;;;;;4989846;28;20057;-63
2023/06/20 06:17:13;;;;;;;12.07;11.57;;;;;;;;;;4983746;28;20105;-61
2023/06/20 06:19:38;;;;;;;12.50;11.90;;;;;;;;;;4985887;28;20464;-61
2023/06/20 06:22:04;;;;;;;13.40;12.77;;;;;;;;;;4980857;28;20026;-62
2023/06/20 06:24:29;;;;;;;14.23;13.55;;;;;;;;;;4972938;28;20097;-64
2023/06/20 06:26:54;;;;;;;13.05;12.45;;;;;;;;;;4985019;28;20907;-61
2023/06/20 06:29:20;;;;;;;13.67;13.07;;;;;;;;;;4981409;28;20073;-62
2023/06/20 06:31:45;;;;;;;13.45;12.85;;;;;;;;;;4974061;28;20341;-64
2023/06/20 06:34:16;;;;;;;13.38;12.77;;;;;;;;;;4984267;28;20113;-62
2023/06/20 06:36:41;;;;;;;13.25;12.65;;;;;;;;;;4980979;28;20371;-63
2023/06/20 06:39:07;;;;;;;13.10;12.50;;;;;;;;;;4981978;28;20055;-61
2023/06/20 06:41:33;;;;;;;13.05;12.45;;;;;;;;;;4981905;28;20449;-62
2023/06/20 06:43:58;;;;;;;12.95;12.35;;;;;;;;;;4978129;28;20046;-61
2023/06/20 06:46:23;;;;;;;13.55;12.95;;;;;;;;;;4979648;28;20084;-61
2023/06/20 06:48:49;;;;;;;13.35;12.75;;;;;;;;;;4978895;28;20068;-63
2023/06/20 06:51:15;;;;;;;12.63;12.02;;;;;;;;;;4985612;28;20117;-63
2023/06/20 06:53:40;;;;;;;12.60;12.00;;;;;;;;;;4985274;28;20513;-62
2023/06/20 06:56:06;;;;;;;14.10;13.40;;;;;;;;;;4980907;28;20038;-61
2023/06/20 06:58:31;;;;;;;13.25;12.65;;;;;;;;;;4983678;28;20042;-62
2023/06/20 07:00:56;;;;;;;13.93;13.23;;;;;;;;;;4981463;28;20400;-64
2023/06/20 07:03:22;;;;;;;13.48;12.88;;;;;;;;;;4979366;28;20359;-62
2023/06/20 07:05:47;;;;;;;13.07;12.48;;;;;;;;;;4985910;28;20022;-62
2023/06/20 07:08:12;;;;;;;13.50;12.90;;;;;;;;;;4984373;28;20486;-63
2023/06/20 07:10:37;;;;;;;13.37;12.77;;;;;;;;;;4985692;28;20023;-61
2023/06/20 07:13:05;;;;;;;13.13;12.52;;;;;;;;;;4980663;28;20300;-62
2023/06/20 07:15:31;;;;;;;12.88;12.27;;;;;;;;;;4986757;28;20486;-61
2023/06/20 07:17:56;;;;;;;13.50;12.90;;;;;;;;;;4984956;28;20026;-65
2023/06/20 07:20:22;;;;;;;14.13;13.43;;;;;;;;;;4987032;28;20077;-67
2023/06/20 07:22:47;;;;;;;13.45;12.85;;;;;;;;;;4982025;28;20105;-67
2023/06/20 07:25:12;;;;;;;13.10;12.50;;;;;;;;;;4984394;28;20030;-70
2023/06/20 07:27:38;;;;;;;13.40;12.80;;;;;;;;;;4978401;28;20070;-66
2023/06/20 07:30:03;;;;;;;13.90;13.20;;;;;;;;;;4987907;28;20043;-67
2023/06/20 07:32:29;;;;;;;13.02;12.43;;;;;;;;;;4982175;28;20050;-66
2023/06/20 07:34:54;;;;;;;13.03;12.43;;;;;;;;;;4986865;28;20465;-66
2023/06/20 07:37:19;;;;;;;13.73;13.03;;;;;;;;;;4987206;28;20360;-65
2023/06/20 07:39:46;;;;;;;13.07;12.48;;;;;;;;;;4983561;28;20348;-67
2023/06/20 07:42:12;;;;;;;13.70;13.02;;;;;;;;;;4975923;28;20057;-67
2023/06/20 07:44:37;;;;;;;13.95;13.25;;;;;;;;;;4989408;28;20045;-66
2023/06/20 07:47:03;;;;;;;13.80;13.10;;;;;;;;;;4984350;28;20041;-66
2023/06/20 07:49:28;;;;;;;13.00;12.40;;;;;;;;;;4985126;28;20035;-66
2023/06/20 07:51:54;;;;;;;12.57;11.98;;;;;;;;;;4984048;28;20031;-64
2023/06/20 07:54:19;;;;;;;12.98;12.38;;;;;;;;;;4983795;28;20027;-65
2023/06/20 07:56:44;;;;;;;13.13;12.52;;;;;;;;;;4984447;28;20056;-66
2023/06/20 07:59:10;;;;;;;13.23;12.63;;;;;;;;;;4979534;28;20481;-65
2023/06/20 08:01:35;;;;;;;13.07;12.48;;;;;;;;;;4987751;28;20028;-64
2023/06/20 08:04:00;;;;;;;13.52;12.93;;;;;;;;;;4988314;28;20088;-66
2023/06/20 08:06:26;;;;;;;14.00;13.30;;;;;;;;;;4984444;28;20026;-65
2023/06/20 08:08:51;;;;;;;13.13;12.52;;;;;;;;;;4985816;28;20279;-65
2023/06/20 08:11:23;;;;;;;13.17;12.57;;;;;;;;;;4986916;28;20453;-65
2023/06/20 08:13:48;;;;;;;13.13;12.52;;;;;;;;;;4980819;28;20642;-65
2023/06/20 08:16:13;;;;;;;12.98;12.38;;;;;;;;;;4984091;28;20040;-65
2023/06/20 08:18:39;;;;;;;13.35;12.75;;;;;;;;;;4981752;28;20026;-68
2023/06/20 08:21:04;;;;;;;12.80;12.20;;;;;;;;;;4977825;28;20091;-65
2023/06/20 08:23:29;;;;;;;12.98;12.38;;;;;;;;;;4983114;28;20106;-66
2023/06/20 08:25:56;;;;;;;13.93;13.23;;;;;;;;;;4988965;28;20068;-65
2023/06/20 08:28:21;;;;;;;13.15;12.55;;;;;;;;;;4980029;28;20038;-65
2023/06/20 08:30:47;;;;;;;14.70;14.00;;;;;;;;;;4986199;28;20179;-63
2023/06/20 08:33:12;;;;;;;13.70;13.07;;;;;;;;;;4987120;28;20758;-63
2023/06/20 08:35:38;;;;;;;13.82;13.13;;;;;;;;;;4976126;28;20043;-63
2023/06/20 08:38:03;;;;;;;13.98;13.27;;;;;;;;;;4973794;28;20038;-66
2023/06/20 08:40:30;;;;;;;12.98;12.38;;;;;;;;;;4985387;28;20065;-64
2023/06/20 08:42:56;;;;;;;13.82;13.13;;;;;;;;;;4988233;28;20125;-65
2023/06/20 08:45:21;;;;;;;13.52;12.93;;;;;;;;;;4984234;28;20073;-65
2023/06/20 08:47:46;;;;;;;13.30;12.70;;;;;;;;;;4984021;28;20054;-64
2023/06/20 08:50:12;;;;;;;14.73;14.02;;;;;;;;;;4979442;28;20033;-66
2023/06/20 08:52:44;;;;;;;13.55;12.95;;;;;;;;;;4980539;28;20026;-68
2023/06/20 08:55:10;;;;;;;12.75;12.15;;;;;;;;;;4986499;28;20030;-67
2023/06/20 08:57:35;;;;;;;13.07;12.48;;;;;;;;;;4988071;28;20034;-67
2023/06/20 09:00:00;;;;;;;14.45;13.75;;;;;;;;;;4978470;28;20035;-67
2023/06/20 09:02:26;;;;;;;13.25;12.65;;;;;;;;;;4980082;28;20086;-67
2023/06/20 09:05:04;;;;;;;15.25;14.50;;;;;;;;;;4978949;28;20057;-68
2023/06/20 09:07:36;;;;;;;14.10;13.40;;;;;;;;;;4985087;28;20469;-66
2023/06/20 09:10:01;;;;;;;12.98;12.38;;;;;;;;;;4980056;28;20561;-64
2023/06/20 09:12:27;;;;;;;12.70;12.10;;;;;;;;;;4982002;28;20022;-64
2023/06/20 09:14:52;;;;;;;13.40;12.80;;;;;;;;;;4989409;28;20430;-63
2023/06/20 09:17:19;;;;;;;13.00;12.40;;;;;;;;;;4983246;28;20022;-63
2023/06/20 09:19:46;;;;;;;13.23;12.63;;;;;;;;;;4977370;28;20023;-63
2023/06/20 09:22:14;;;;;;;12.60;12.00;;;;;;;;;;4982779;28;20432;-62
2023/06/20 09:24:44;;;;;;;12.55;11.95;;;;;;;;;;4988675;28;20030;-64
2023/06/20 09:27:09;;;;;;;14.18;13.50;;;;;;;;;;4984580;28;21483;-64
2023/06/20 09:29:47;;;;;;;13.43;12.82;;;;;;;;;;4981169;28;20082;-63
2023/06/20 09:32:17;;;;;;;13.82;13.15;;;;;;;;;;4990041;28;20084;-63
2023/06/20 09:34:42;;;;;;;12.48;11.88;;;;;;;;;;4983250;28;20367;-63
2023/06/20 09:37:08;;;;;;;12.80;12.20;;;;;;;;;;4986195;28;20030;-63
2023/06/20 09:39:34;;;;;;;12.80;12.20;;;;;;;;;;4982878;28;20354;-64
2023/06/20 09:41:59;;;;;;;13.02;12.43;;;;;;;;;;4984665;28;20105;-63
2023/06/20 09:44:26;;;;;;;13.20;12.60;;;;;;;;;;4982828;28;20466;-63
2023/06/20 09:46:52;;;;;;;14.13;13.43;;;;;;;;;;4970640;28;20327;-65
2023/06/20 09:49:17;;;;;;;14.20;13.50;;;;;;;;;;4978829;28;20386;-68
2023/06/20 09:51:43;;;;;;;15.07;14.32;;;;;;;;;;4982061;28;20030;-66
2023/06/20 09:54:11;;;;;;;12.70;12.10;;;;;;;;;;4986922;28;20041;-64
2023/06/20 09:56:44;;;;;;;13.15;12.55;;;;;;;;;;4983948;28;20027;-70
2023/06/20 09:59:10;;;;;;;13.02;12.43;;;;;;;;;;4984494;28;20034;-67
2023/06/20 10:01:38;;;;;;;14.38;13.68;;;;;;;;;;4981574;28;20080;-66
2023/06/20 10:04:05;;;;;;;14.20;13.50;;;;;;;;;;4982308;28;20026;-64
2023/06/20 10:06:30;;;;;;;13.05;12.45;;;;;;;;;;4987073;28;20026;-66
2023/06/20 10:08:56;;;;;;;13.10;12.50;;;;;;;;;;4979403;28;20038;-65
2023/06/20 10:11:22;;;;;;;13.57;12.93;;;;;;;;;;4985988;28;20905;-65
2023/06/20 10:13:47;;;;;;;14.25;13.55;;;;;;;;;;4982247;28;20071;-65
2023/06/20 10:16:12;;;;;;;15.00;14.30;;;;;;;;;;4980928;28;20026;-62
2023/06/20 10:18:38;;;;;;;13.45;12.85;;;;;;;;;;4979366;28;20022;-63
2023/06/20 10:21:29;;;;;;;13.63;13.00;;;;;;;;;;4984820;28;20186;-65
2023/06/20 10:23:56;;;;;;;13.90;13.20;;;;;;;;;;4953198;28;20485;-65
2023/06/20 10:26:23;;;;;;;14.55;13.85;;;;;;;;;;4972632;28;20035;-67
2023/06/20 10:28:55;;;;;;;14.50;13.80;;;;;;;;;;4978489;28;20384;-65
2023/06/20 10:31:22;;;;;;;15.48;14.68;;;;;;;;;;4971550;28;20027;-65
2023/06/20 10:33:47;;;;;;;14.85;14.15;;;;;;;;;;4980981;28;20579;-65
2023/06/20 10:36:13;;;;;;;15.30;14.50;;;;;;;;;;4976871;28;20026;-65
2023/06/20 10:38:59;;;;;;;13.93;13.23;;;;;;;;;;4976614;28;20031;-65
2023/06/20 10:41:27;;;;;;;14.32;13.63;;;;;;;;;;4973798;28;20011;-67
2023/06/20 10:43:59;;;;;;;13.20;12.60;;;;;;;;;;4982284;28;20030;-67
2023/06/20 10:46:36;;;;;;;13.93;13.23;;;;;;;;;;4982006;28;20048;-70
2023/06/20 10:49:05;;;;;;;13.15;12.55;;;;;;;;;;4982066;28;20038;-67
2023/06/20 10:51:30;;;;;;;13.55;12.93;;;;;;;;;;4984152;28;20084;-68
2023/06/20 10:54:22;;;;;;;13.63;12.98;;;;;;;;;;4982784;28;20542;-70
2023/06/20 10:56:47;;;;;;;13.52;12.93;;;;;;;;;;4979088;28;20085;-68
2023/06/20 10:59:13;;;;;;;13.50;12.90;;;;;;;;;;4986321;28;20497;-71
2023/06/20 11:01:39;;;;;;;13.48;12.88;;;;;;;;;;4987155;28;20030;-70
2023/06/20 11:04:11;;;;;;;13.95;13.25;;;;;;;;;;4987733;28;20026;-70
2023/06/20 11:06:37;;;;;;;14.13;13.43;;;;;;;;;;4990019;28;20076;-70
2023/06/20 11:09:03;;;;;;;13.75;13.05;;;;;;;;;;4987490;28;20022;-69
2023/06/20 11:11:35;;;;;;;14.13;13.43;;;;;;;;;;4989532;28;20031;-69
2023/06/20 11:14:13;;;;;;;13.48;12.88;;;;;;;;;;4991139;28;20030;-69
2023/06/20 11:16:39;;;;;;;14.35;13.65;;;;;;;;;;4984830;28;20041;-70
2023/06/20 11:19:04;;;;;;;14.68;13.98;;;;;;;;;;4982872;28;20030;-67
2023/06/20 11:21:30;;;;;;;13.35;12.75;;;;;;;;;;4983487;28;20030;-65
2023/06/20 11:24:02;;;;;;;13.23;12.63;;;;;;;;;;4987049;28;20030;-66
2023/06/20 11:26:30;;;;;;;13.25;12.65;;;;;;;;;;4988500;28;20372;-67
2023/06/20 11:29:03;;;;;;;12.93;12.32;;;;;;;;;;4985909;28;20038;-68
2023/06/20 11:31:30;;;;;;;12.95;12.35;;;;;;;;;;4979543;28;20420;-67
2023/06/20 11:34:09;;;;;;;13.52;12.88;;;;;;;;;;4984913;28;20037;-68
2023/06/20 11:36:35;;;;;;;12.88;12.27;;;;;;;;;;4990203;28;20037;-68
2023/06/20 11:39:07;;;;;;;13.27;12.68;;;;;;;;;;4984061;28;20041;-68
2023/06/20 11:41:32;;;;;;;12.90;12.30;;;;;;;;;;4990115;28;20098;-68
2023/06/20 11:43:58;;;;;;;12.52;11.93;;;;;;;;;;4984577;28;20098;-66
2023/06/20 11:46:24;;;;;;;13.00;12.40;;;;;;;;;;4981217;28;20019;-68
2023/06/20 11:48:50;;;;;;;13.00;12.40;;;;;;;;;;4978390;28;20084;-67
2023/06/20 11:51:15;;;;;;;12.75;12.15;;;;;;;;;;4984157;28;20493;-67
2023/06/20 11:53:41;;;;;;;13.05;12.45;;;;;;;;;;4977298;28;20480;-67
2023/06/20 11:56:07;;;;;;;12.38;11.77;;;;;;;;;;4984078;28;20057;-68
2023/06/20 11:58:43;;;;;;;13.00;12.40;;;;;;;;;;4986782;28;20026;-67
2023/06/20 12:01:15;;;;;;;13.20;12.60;;;;;;;;;;4982938;28;20446;-67
2023/06/20 12:03:41;;;;;;;12.95;12.35;;;;;;;;;;4990141;28;20068;-64
2023/06/20 12:06:27;;;;;;;13.43;12.82;;;;;;;;;;4984759;28;20023;-68
2023/06/20 12:08:57;;;;;;;13.10;12.50;;;;;;;;;;4986367;28;20037;-67
2023/06/20 12:11:22;;;;;;;12.63;12.02;;;;;;;;;;4983731;28;20049;-66
2023/06/20 12:13:48;;;;;;;13.18;12.57;;;;;;;;;;4979851;28;20031;-67
2023/06/20 12:16:13;;;;;;;13.40;12.80;;;;;;;;;;4978761;28;20030;-70
2023/06/20 12:18:39;;;;;;;13.15;12.55;;;;;;;;;;4988375;28;20026;-67
2023/06/20 12:21:04;;;;;;;13.27;12.68;;;;;;;;;;4984596;28;20032;-67
2023/06/20 12:23:30;;;;;;;13.02;12.43;;;;;;;;;;4974597;28;20835;-67
2023/06/20 12:25:55;;;;;;;14.32;13.63;;;;;;;;;;4979116;28;20163;-67
2023/06/20 12:28:21;;;;;;;13.55;12.95;;;;;;;;;;4983034;28;20047;-66
2023/06/20 12:30:46;;;;;;;14.07;13.38;;;;;;;;;;4988751;28;20631;-68
2023/06/20 12:33:12;;;;;;;13.80;13.10;;;;;;;;;;4988872;28;20034;-65
2023/06/20 12:35:38;;;;;;;14.50;13.80;;;;;;;;;;4984356;28;20088;-67
2023/06/20 12:38:03;;;;;;;12.50;11.90;;;;;;;;;;4989257;28;20449;-67
2023/06/20 12:40:29;;;;;;;12.65;12.05;;;;;;;;;;4986694;28;20022;-68
2023/06/20 12:42:54;;;;;;;12.90;12.30;;;;;;;;;;4982514;28;20545;-68
2023/06/20 12:45:20;;;;;;;12.75;12.15;;;;;;;;;;4984886;28;20414;-67
2023/06/20 12:47:45;;;;;;;13.07;12.48;;;;;;;;;;4986707;28;20545;-68
2023/06/20 12:50:10;;;;;;;12.68;12.07;;;;;;;;;;4985956;28;20019;-68
2023/06/20 12:52:36;;;;;;;13.40;12.80;;;;;;;;;;4989292;28;20033;-68
2023/06/20 12:55:04;;;;;;;12.98;12.38;;;;;;;;;;4979354;28;20367;-65
2023/06/20 12:57:29;;;;;;;12.95;12.35;;;;;;;;;;4990774;28;20045;-68
2023/06/20 12:59:54;;;;;;;13.07;12.48;;;;;;;;;;4990486;28;20027;-68
2023/06/20 13:02:21;;;;;;;13.25;12.65;;;;;;;;;;4985241;28;20059;-67
2023/06/20 13:04:46;;;;;;;12.52;11.93;;;;;;;;;;4988345;28;20371;-66
2023/06/20 13:07:14;;;;;;;12.93;12.33;;;;;;;;;;4984592;28;20031;-67
2023/06/20 13:09:39;;;;;;;12.93;12.32;;;;;;;;;;4980836;28;20273;-66
2023/06/20 13:12:05;;;;;;;13.33;12.73;;;;;;;;;;4986012;28;20036;-66
2023/06/20 13:14:31;;;;;;;13.32;12.73;;;;;;;;;;4987673;28;20267;-68
2023/06/20 13:16:58;;;;;;;13.23;12.63;;;;;;;;;;4986250;28;20375;-67
2023/06/20 13:19:23;;;;;;;13.38;12.77;;;;;;;;;;4989434;28;20117;-66
2023/06/20 13:21:49;;;;;;;13.40;12.80;;;;;;;;;;4986367;28;20096;-68
2023/06/20 13:24:14;;;;;;;13.88;13.18;;;;;;;;;;4980987;28;20070;-67
2023/06/20 13:26:40;;;;;;;12.82;12.23;;;;;;;;;;4988216;28;20022;-66
2023/06/20 13:29:05;;;;;;;13.55;12.93;;;;;;;;;;4980233;28;20054;-66
2023/06/20 13:31:30;;;;;;;12.67;12.07;;;;;;;;;;4982438;28;20034;-65
2023/06/20 13:33:56;;;;;;;12.80;12.20;;;;;;;;;;4983015;28;20359;-65
2023/06/20 13:36:21;;;;;;;12.75;12.15;;;;;;;;;;4983988;28;20275;-66
2023/06/20 13:38:47;;;;;;;12.85;12.25;;;;;;;;;;4988701;28;20053;-65
2023/06/20 13:41:12;;;;;;;13.27;12.68;;;;;;;;;;4987474;28;20014;-65
2023/06/20 13:43:38;;;;;;;12.88;12.27;;;;;;;;;;4985079;28;20030;-64
2023/06/20 13:46:03;;;;;;;11.95;11.45;;;;;;;;;;4990876;28;20077;-63
2023/06/20 13:48:29;;;;;;;12.48;11.88;;;;;;;;;;4981804;28;20037;-64
2023/06/20 13:50:54;;;;;;;12.57;11.98;;;;;;;;;;4981936;28;20034;-64
2023/06/20 13:53:21;;;;;;;12.27;11.68;;;;;;;;;;4987087;28;20034;-65
2023/06/20 13:55:46;;;;;;;12.18;11.60;;;;;;;;;;4986961;28;20097;-64
2023/06/20 13:58:12;;;;;;;12.43;11.82;;;;;;;;;;4982516;28;20496;-65
2023/06/20 14:00:38;;;;;;;12.38;11.77;;;;;;;;;;4986703;28;20018;-63
2023/06/20 14:03:04;;;;;;;12.82;12.23;;;;;;;;;;4980850;28;20470;-65
2023/06/20 14:05:29;;;;;;;13.68;12.98;;;;;;;;;;4979104;28;20018;-64
2023/06/20 14:07:55;;;;;;;12.52;11.93;;;;;;;;;;4987383;28;20034;-64
2023/06/20 14:10:20;;;;;;;13.85;13.15;;;;;;;;;;4980559;28;21586;-65
2023/06/20 14:12:47;;;;;;;15.93;15.13;;;;;;;;;;4984309;28;22134;-64
2023/06/20 14:15:12;;;;;;;12.82;12.23;;;;;;;;;;4977703;28;20030;-63